Time;durP1;ratioP1;P1;durP2;ratioP2;P2;SDS_P1;SDS_P2;PMS_P1;PMS_P2;Temp;Humidity;BMP_temperature;BMP_pressure;BME280_temperature;BME280_humidity;BME280_pressure;Samples;Min_cycle;Max_cycle;Signal;HPM_P1;HPM_P2
2022/07/15 00:00:41;;;;;;;10.63;4.53;;;19.30;99.40;;;;;;5010279;28;20181;-74
2022/07/15 00:03:06;;;;;;;6.23;3.57;;;19.20;99.90;;;;;;4992994;28;20652;-72
2022/07/15 00:05:32;;;;;;;4.00;3.10;;;19.10;99.90;;;;;;4992375;28;20562;-72
2022/07/15 00:08:00;;;;;;;8.40;4.00;;;19.00;99.90;;;;;;5009968;28;20295;-72
2022/07/15 00:10:27;;;;;;;6.77;3.27;;;18.90;99.90;;;;;;5009918;28;20211;-74
2022/07/15 00:12:58;;;;;;;10.33;3.63;;;18.90;99.90;;;;;;5009868;28;20424;-73
2022/07/15 00:15:26;;;;;;;6.47;4.00;;;18.80;99.90;;;;;;5010606;28;20962;-74
2022/07/15 00:17:53;;;;;;;3.90;3.17;;;18.70;99.90;;;;;;5009855;28;20443;-74
2022/07/15 00:20:20;;;;;;;3.97;2.93;;;18.60;99.90;;;;;;4992237;28;20827;-74
2022/07/15 00:22:46;;;;;;;5.17;3.40;;;18.50;99.90;;;;;;5010160;28;20507;-73
2022/07/15 00:25:12;;;;;;;4.50;3.50;;;18.50;99.90;;;;;;5010036;28;20458;-73
2022/07/15 00:27:51;;;;;;;7.53;3.00;;;18.40;99.90;;;;;;5009715;28;20451;-73
2022/07/15 00:30:17;;;;;;;11.00;3.67;;;18.30;99.90;;;;;;5009363;28;20502;-73
2022/07/15 00:32:42;;;;;;;6.53;3.70;;;18.30;99.90;;;;;;5009342;28;20430;-73
2022/07/15 00:35:08;;;;;;;8.53;3.90;;;18.20;99.90;;;;;;5009183;28;20239;-73
2022/07/15 00:37:34;;;;;;;5.63;3.07;;;17.90;99.90;;;;;;5009104;28;20236;-73
2022/07/15 00:40:00;;;;;;;10.40;4.00;;;17.80;99.90;;;;;;5009219;28;20201;-73
2022/07/15 00:42:44;;;;;;;4.33;3.43;;;17.70;99.90;;;;;;4991838;28;20474;-74
2022/07/15 00:45:18;;;;;;;6.10;3.40;;;17.70;99.90;;;;;;4991355;28;20441;-74
2022/07/15 00:47:49;;;;;;;5.23;3.77;;;17.70;99.90;;;;;;5009209;28;20880;-73
2022/07/15 00:50:16;;;;;;;7.63;3.50;;;17.70;99.90;;;;;;5009093;28;20466;-73
2022/07/15 00:52:45;;;;;;;6.10;3.43;;;17.60;99.90;;;;;;4991808;28;20420;-73
2022/07/15 00:55:12;;;;;;;5.90;3.80;;;17.60;99.90;;;;;;5009204;28;20522;-73
2022/07/15 00:57:41;;;;;;;5.23;3.40;;;17.60;99.90;;;;;;4992189;28;20463;-73
2022/07/15 01:00:11;;;;;;;5.73;3.57;;;17.40;99.90;;;;;;5009202;28;20526;-73
2022/07/15 01:02:39;;;;;;;7.97;3.70;;;17.20;99.90;;;;;;5009154;28;20417;-73
2022/07/15 01:05:07;;;;;;;3.57;2.87;;;17.00;99.90;;;;;;5009056;28;20434;-73
2022/07/15 01:07:34;;;;;;;7.63;3.30;;;17.00;99.90;;;;;;5008912;28;20482;-73
2022/07/15 01:10:00;;;;;;;6.40;3.17;;;17.10;99.90;;;;;;5008793;28;20965;-73
2022/07/15 01:12:26;;;;;;;5.47;2.93;;;17.10;99.90;;;;;;4974961;28;20461;-74
2022/07/15 01:14:52;;;;;;;4.90;3.30;;;17.10;99.90;;;;;;4991242;28;20438;-74
2022/07/15 01:17:18;;;;;;;6.67;3.27;;;17.10;99.90;;;;;;5008773;28;20439;-75
2022/07/15 01:19:44;;;;;;;5.80;3.57;;;17.10;99.90;;;;;;4990933;28;20775;-75
2022/07/15 01:22:10;;;;;;;4.97;3.10;;;16.90;99.90;;;;;;5008966;28;20208;-74
2022/07/15 01:24:35;;;;;;;9.13;3.07;;;16.80;99.90;;;;;;5008884;28;20184;-74
2022/07/15 01:27:01;;;;;;;6.77;3.50;;;16.80;99.90;;;;;;5008632;28;20561;-75
2022/07/15 01:29:28;;;;;;;7.80;3.30;;;16.80;99.90;;;;;;4974735;28;20242;-74
2022/07/15 01:31:54;;;;;;;7.90;3.20;;;16.70;99.90;;;;;;5009142;28;20647;-75
2022/07/15 01:34:20;;;;;;;5.30;3.50;;;16.70;99.90;;;;;;4990906;28;20426;-75
2022/07/15 01:36:46;;;;;;;6.50;2.87;;;16.70;99.90;;;;;;5008720;28;20669;-74
2022/07/15 01:39:11;;;;;;;6.97;3.50;;;16.60;99.90;;;;;;5008696;28;20454;-74
2022/07/15 01:41:37;;;;;;;5.53;2.80;;;16.50;99.90;;;;;;4979078;28;20634;-74
2022/07/15 01:44:03;;;;;;;3.60;3.30;;;16.50;99.90;;;;;;4994774;28;20618;-73
2022/07/15 01:46:29;;;;;;;7.80;2.93;;;16.60;99.90;;;;;;4994840;28;20695;-72
2022/07/15 01:49:36;;;;;;;8.90;2.97;;;16.50;99.90;;;;;;5012429;28;20540;-72
2022/07/15 01:51:43;;;;;;;4.40;2.97;;;16.50;99.90;;;;;;4999198;28;20208;-72
2022/07/15 01:54:09;;;;;;;5.03;3.13;;;16.40;99.90;;;;;;5012437;28;20419;-72
2022/07/15 01:56:36;;;;;;;4.33;2.70;;;16.40;99.90;;;;;;5012626;28;20208;-72
2022/07/15 01:59:02;;;;;;;3.90;2.97;;;16.30;99.90;;;;;;5012242;28;20272;-72
2022/07/15 02:01:27;;;;;;;5.97;2.77;;;16.10;99.90;;;;;;5012159;28;20510;-73
2022/07/15 02:03:53;;;;;;;5.17;3.10;;;16.10;99.90;;;;;;4994503;28;20444;-72
2022/07/15 02:06:21;;;;;;;4.57;2.80;;;15.90;99.90;;;;;;5012115;28;20203;-72
2022/07/15 02:08:46;;;;;;;9.57;3.60;;;15.80;99.90;;;;;;5012000;28;20711;-72
2022/07/15 02:11:12;;;;;;;8.03;2.70;;;15.70;99.90;;;;;;4994397;28;20439;-73
2022/07/15 02:13:38;;;;;;;3.90;2.43;;;15.80;99.90;;;;;;5012231;28;20186;-73
2022/07/15 02:16:04;;;;;;;4.40;2.23;;;15.80;99.90;;;;;;4977915;28;20234;-73
2022/07/15 02:18:29;;;;;;;3.40;2.70;;;15.80;99.90;;;;;;5012097;28;20273;-73
2022/07/15 02:20:55;;;;;;;6.63;2.53;;;15.90;99.90;;;;;;4994160;28;20567;-73
2022/07/15 02:23:21;;;;;;;6.90;2.63;;;15.90;99.90;;;;;;5011893;28;20195;-73
2022/07/15 02:25:47;;;;;;;6.40;3.00;;;15.90;99.90;;;;;;4994104;28;20436;-73
2022/07/15 02:28:13;;;;;;;6.70;2.33;;;16.00;99.90;;;;;;4994058;28;20432;-73
2022/07/15 02:30:41;;;;;;;4.47;2.73;;;16.00;99.90;;;;;;4977964;28;20348;-74
2022/07/15 02:33:07;;;;;;;6.27;3.10;;;16.00;99.90;;;;;;5012571;28;20430;-73
2022/07/15 02:35:33;;;;;;;14.83;3.40;;;16.00;99.90;;;;;;5013173;28;20446;-73
2022/07/15 02:37:59;;;;;;;9.20;3.30;;;15.70;99.90;;;;;;5014383;28;20950;-73
2022/07/15 02:40:25;;;;;;;4.27;2.50;;;15.50;99.90;;;;;;5020807;28;20441;-73
2022/07/15 02:42:54;;;;;;;4.17;2.67;;;15.40;99.90;;;;;;5001415;28;20840;-72
2022/07/15 02:45:21;;;;;;;6.03;2.43;;;15.10;99.90;;;;;;4995972;28;20429;-72
2022/07/15 02:47:49;;;;;;;6.40;2.60;;;15.00;99.90;;;;;;5012077;28;21172;-72
2022/07/15 02:50:15;;;;;;;8.53;2.53;;;15.00;99.90;;;;;;5011876;28;20562;-72
2022/07/15 02:52:41;;;;;;;2.50;2.30;;;15.00;99.90;;;;;;5011057;28;20421;-72
2022/07/15 02:55:08;;;;;;;5.00;3.20;;;15.20;99.90;;;;;;5011274;28;20630;-72
2022/07/15 02:57:34;;;;;;;4.03;2.70;;;15.20;99.90;;;;;;5011125;28;20449;-71
2022/07/15 03:00:00;;;;;;;4.73;2.67;;;15.30;99.90;;;;;;5011096;28;20539;-71
2022/07/15 03:02:26;;;;;;;3.13;2.57;;;15.50;99.90;;;;;;5011061;28;20930;-73
2022/07/15 03:04:52;;;;;;;4.27;2.50;;;15.30;99.90;;;;;;5011058;28;20443;-72
2022/07/15 03:07:18;;;;;;;2.67;2.37;;;15.20;99.90;;;;;;5010937;28;20453;-71
2022/07/15 03:09:44;;;;;;;9.17;2.60;;;15.20;99.90;;;;;;5010822;28;20531;-73
2022/07/15 03:12:10;;;;;;;2.87;2.30;;;15.30;99.90;;;;;;5010882;28;20270;-73
2022/07/15 03:14:35;;;;;;;4.30;2.13;;;15.40;99.90;;;;;;5010711;28;20621;-73
2022/07/15 03:17:01;;;;;;;4.63;2.30;;;15.40;99.90;;;;;;5010769;28;20914;-73
2022/07/15 03:19:26;;;;;;;6.20;2.50;;;15.40;99.90;;;;;;5010786;28;20664;-73
2022/07/15 03:21:52;;;;;;;3.97;2.23;;;15.40;99.90;;;;;;4993203;28;20198;-73
2022/07/15 03:24:18;;;;;;;5.73;2.27;;;15.40;99.90;;;;;;5010718;28;20197;-73
2022/07/15 03:26:43;;;;;;;3.10;2.07;;;15.50;99.90;;;;;;4992812;28;20590;-73
2022/07/15 03:29:09;;;;;;;9.70;2.30;;;15.40;99.90;;;;;;4992666;28;20304;-73
2022/07/15 03:31:36;;;;;;;3.97;2.70;;;15.40;99.90;;;;;;5010538;28;20188;-73
2022/07/15 03:34:01;;;;;;;12.10;3.23;;;15.30;99.90;;;;;;5010699;28;20186;-73
2022/07/15 03:36:27;;;;;;;5.53;2.90;;;15.30;99.90;;;;;;5010562;28;20791;-73
2022/07/15 03:38:53;;;;;;;10.73;2.90;;;15.20;99.90;;;;;;5010171;28;20499;-73
2022/07/15 03:41:19;;;;;;;9.10;3.13;;;15.30;99.90;;;;;;5010507;28;20430;-73
2022/07/15 03:43:45;;;;;;;3.83;2.50;;;15.30;99.90;;;;;;5010632;28;20837;-71
2022/07/15 03:46:11;;;;;;;8.70;2.60;;;15.20;99.90;;;;;;5010326;28;20553;-72
2022/07/15 03:48:37;;;;;;;8.83;2.97;;;15.20;99.90;;;;;;5010649;28;20192;-72
2022/07/15 03:51:03;;;;;;;6.23;2.30;;;15.10;99.90;;;;;;4992701;28;21161;-71
2022/07/15 03:53:29;;;;;;;3.53;2.17;;;15.10;99.90;;;;;;5010870;28;20185;-71
2022/07/15 03:55:54;;;;;;;4.83;2.07;;;15.00;99.90;;;;;;5010908;28;20461;-71
2022/07/15 03:58:20;;;;;;;5.23;2.20;;;15.00;99.90;;;;;;5010836;28;20204;-72
2022/07/15 04:00:45;;;;;;;3.37;2.03;;;15.10;99.90;;;;;;5010874;28;20221;-72
2022/07/15 04:03:11;;;;;;;6.30;2.13;;;15.00;99.90;;;;;;5010636;28;20197;-72
2022/07/15 04:05:38;;;;;;;3.70;2.67;;;15.00;99.90;;;;;;5010531;28;20190;-72
2022/07/15 04:08:04;;;;;;;2.10;1.90;;;15.00;99.90;;;;;;5010527;28;20734;-72
2022/07/15 04:10:31;;;;;;;7.13;2.30;;;15.00;99.90;;;;;;5010179;28;20552;-71
2022/07/15 04:12:57;;;;;;;4.70;2.47;;;14.90;99.90;;;;;;5010367;28;20801;-72
2022/07/15 04:15:23;;;;;;;9.13;1.90;;;14.70;99.90;;;;;;5010129;28;20425;-72
2022/07/15 04:17:49;;;;;;;5.20;2.30;;;14.60;99.90;;;;;;5009855;28;20448;-74
2022/07/15 04:20:15;;;;;;;3.83;2.00;;;14.70;99.90;;;;;;4991225;28;20186;-74
2022/07/15 04:22:46;;;;;;;2.80;2.10;;;14.70;99.90;;;;;;5009223;28;20475;-75
2022/07/15 04:25:15;;;;;;;7.77;1.80;;;14.90;99.90;;;;;;4990790;28;20248;-74
2022/07/15 04:27:42;;;;;;;5.43;2.70;;;15.10;99.90;;;;;;5008422;28;20449;-76
2022/07/15 04:30:09;;;;;;;4.47;2.47;;;15.20;99.90;;;;;;5009780;28;20468;-74
2022/07/15 04:32:34;;;;;;;9.73;2.10;;;15.30;99.90;;;;;;5008890;28;20785;-75
2022/07/15 04:35:01;;;;;;;4.73;2.30;;;15.30;99.90;;;;;;4990659;28;20439;-75
2022/07/15 04:37:27;;;;;;;4.47;1.97;;;15.30;99.90;;;;;;5008166;28;20391;-75
2022/07/15 04:39:54;;;;;;;2.37;1.93;;;15.30;99.90;;;;;;4989882;28;20448;-75
2022/07/15 04:42:20;;;;;;;5.00;2.07;;;15.20;99.90;;;;;;4990134;28;20424;-75
2022/07/15 04:44:47;;;;;;;3.97;2.00;;;15.20;99.90;;;;;;5007958;28;20478;-75
2022/07/15 04:47:13;;;;;;;5.27;2.20;;;15.30;99.90;;;;;;4990172;28;20951;-75
2022/07/15 04:52:24;;;;;;;3.83;2.10;;;15.60;99.90;;;;;;5008392;28;20398;-75
2022/07/15 04:54:53;;;;;;;6.83;2.40;;;15.70;99.90;;;;;;4989792;28;20520;-75
2022/07/15 04:57:19;;;;;;;4.47;2.67;;;15.70;99.90;;;;;;4990418;28;20443;-75
2022/07/15 04:59:44;;;;;;;5.00;2.07;;;15.80;99.90;;;;;;5007622;28;20933;-75
2022/07/15 05:02:10;;;;;;;10.33;2.33;;;15.90;99.90;;;;;;5007721;28;20413;-76
2022/07/15 05:04:36;;;;;;;5.47;2.20;;;16.10;99.90;;;;;;5007765;28;20189;-75
2022/07/15 05:07:02;;;;;;;4.40;1.80;;;16.00;99.90;;;;;;5007402;28;20443;-76
2022/07/15 05:09:28;;;;;;;6.47;2.10;;;16.00;99.90;;;;;;5007491;28;20212;-75
2022/07/15 05:11:54;;;;;;;9.53;1.90;;;16.20;99.90;;;;;;5007493;28;20433;-75
2022/07/15 05:14:19;;;;;;;4.67;1.97;;;16.20;99.90;;;;;;5008652;28;20417;-75
2022/07/15 05:16:46;;;;;;;7.50;2.20;;;16.30;99.90;;;;;;5013958;28;20959;-75
2022/07/15 05:19:12;;;;;;;7.70;1.80;;;16.40;99.90;;;;;;5014021;28;20803;-75
2022/07/15 05:21:37;;;;;;;5.03;2.00;;;16.70;99.90;;;;;;4996222;28;20435;-75
2022/07/15 05:24:03;;;;;;;4.70;2.37;;;16.90;99.90;;;;;;5013772;28;20920;-76
2022/07/15 05:26:29;;;;;;;7.07;2.13;;;16.90;99.90;;;;;;4996211;28;20790;-76
2022/07/15 05:28:55;;;;;;;9.03;2.30;;;17.00;99.90;;;;;;4979980;28;20543;-76
2022/07/15 05:31:20;;;;;;;3.83;2.30;;;17.10;99.90;;;;;;4979934;28;20206;-76
2022/07/15 05:33:46;;;;;;;4.90;2.50;;;17.20;99.90;;;;;;5013905;28;20951;-76
2022/07/15 05:36:13;;;;;;;3.90;2.17;;;17.30;99.90;;;;;;4996256;28;20207;-76
2022/07/15 05:38:39;;;;;;;6.27;3.20;;;17.50;99.90;;;;;;5013982;28;20259;-76
2022/07/15 05:41:04;;;;;;;3.43;2.47;;;17.50;99.90;;;;;;4996869;28;20418;-76
2022/07/15 05:43:30;;;;;;;8.83;2.77;;;17.70;99.90;;;;;;4996214;28;20852;-75
2022/07/15 05:45:56;;;;;;;3.67;2.43;;;17.80;99.90;;;;;;5013879;28;20245;-76
2022/07/15 05:48:22;;;;;;;7.40;1.93;;;17.90;99.90;;;;;;4996489;28;20460;-75
2022/07/15 05:50:48;;;;;;;4.53;2.10;;;18.00;99.90;;;;;;5014336;28;20250;-76
2022/07/15 05:53:14;;;;;;;4.57;2.77;;;18.10;99.90;;;;;;5014597;28;20421;-76
2022/07/15 05:55:40;;;;;;;3.63;2.10;;;18.20;99.90;;;;;;5014413;28;20708;-75
2022/07/15 05:58:09;;;;;;;4.53;2.13;;;18.30;99.90;;;;;;5014702;28;20546;-76
2022/07/15 06:00:37;;;;;;;4.00;2.50;;;18.40;99.10;;;;;;5014406;28;20441;-76
2022/07/15 06:03:03;;;;;;;7.30;2.60;;;18.50;99.90;;;;;;4996799;28;20432;-75
2022/07/15 06:05:30;;;;;;;7.03;2.73;;;18.60;98.80;;;;;;4980340;28;20432;-76
2022/07/15 06:07:56;;;;;;;7.83;2.50;;;18.80;99.90;;;;;;4996635;28;20450;-75
2022/07/15 06:10:22;;;;;;;9.67;2.83;;;19.00;99.90;;;;;;5014247;28;20471;-75
2022/07/15 06:12:48;;;;;;;4.80;3.10;;;19.10;99.60;;;;;;5014247;28;20526;-75
2022/07/15 06:15:14;;;;;;;4.30;2.20;;;19.10;98.60;;;;;;4980148;28;20432;-75
2022/07/15 06:17:39;;;;;;;9.63;2.63;;;19.20;98.40;;;;;;5013918;28;20446;-75
2022/07/15 06:20:07;;;;;;;4.30;2.27;;;19.40;95.70;;;;;;5013773;28;20184;-76
2022/07/15 06:22:32;;;;;;;6.30;2.33;;;19.50;94.70;;;;;;4996115;28;20945;-75
2022/07/15 06:24:58;;;;;;;9.70;2.30;;;19.70;93.90;;;;;;5013896;28;20425;-75
2022/07/15 06:27:24;;;;;;;7.43;2.63;;;19.70;96.60;;;;;;5011006;28;20302;-76
2022/07/15 06:29:50;;;;;;;5.80;2.50;;;19.70;97.20;;;;;;5010695;28;20220;-76
2022/07/15 06:32:16;;;;;;;8.90;3.40;;;19.80;96.40;;;;;;5011016;28;20188;-76
2022/07/15 06:34:42;;;;;;;7.10;2.90;;;19.80;97.70;;;;;;5010500;28;20920;-76
2022/07/15 06:37:08;;;;;;;6.70;2.73;;;19.90;98.30;;;;;;4992328;28;20520;-76
2022/07/15 06:39:34;;;;;;;6.67;3.13;;;20.00;99.10;;;;;;5010151;28;20688;-76
2022/07/15 06:42:00;;;;;;;6.30;2.93;;;20.00;99.70;;;;;;5010562;28;20490;-76
2022/07/15 06:44:26;;;;;;;7.23;2.80;;;20.00;99.90;;;;;;5013047;28;20448;-74
2022/07/15 06:46:52;;;;;;;6.33;3.10;;;20.10;99.90;;;;;;4994196;28;20476;-75
2022/07/15 06:49:18;;;;;;;4.77;2.77;;;20.20;98.80;;;;;;4994760;28;20799;-75
2022/07/15 06:51:44;;;;;;;4.80;2.40;;;20.30;99.20;;;;;;4994577;28;20424;-75
2022/07/15 06:54:11;;;;;;;5.47;2.50;;;20.40;96.00;;;;;;4994417;28;20184;-75
2022/07/15 06:56:37;;;;;;;3.50;2.10;;;20.60;94.40;;;;;;5012658;28;20284;-75
2022/07/15 06:59:03;;;;;;;3.60;1.93;;;20.60;94.00;;;;;;4993731;28;20456;-75
2022/07/15 07:01:28;;;;;;;3.80;2.43;;;20.60;92.70;;;;;;4977765;28;20513;-75
2022/07/15 07:03:54;;;;;;;5.17;2.20;;;20.80;93.30;;;;;;5011716;28;20640;-75
2022/07/15 07:06:20;;;;;;;9.70;2.40;;;20.90;92.00;;;;;;5011719;28;20213;-75
2022/07/15 07:08:46;;;;;;;8.33;2.27;;;20.90;90.80;;;;;;5011582;28;20615;-75
2022/07/15 07:11:12;;;;;;;4.83;2.23;;;20.80;91.00;;;;;;5011286;28;20201;-76
2022/07/15 07:13:38;;;;;;;6.07;2.40;;;20.90;90.50;;;;;;4976649;28;20955;-75
2022/07/15 07:16:04;;;;;;;3.67;1.83;;;21.00;91.20;;;;;;4992776;28;20523;-75
2022/07/15 07:18:30;;;;;;;7.70;2.10;;;20.90;86.10;;;;;;5010671;28;20188;-75
2022/07/15 07:20:56;;;;;;;4.07;1.80;;;21.00;88.10;;;;;;5010742;28;21000;-76
2022/07/15 07:23:26;;;;;;;2.40;1.87;;;21.00;85.60;;;;;;5010742;28;20523;-75
2022/07/15 07:25:52;;;;;;;4.77;2.77;;;21.20;86.60;;;;;;4977017;28;20569;-76
2022/07/15 07:28:18;;;;;;;7.43;2.20;;;21.30;81.40;;;;;;4976300;28;20443;-75
2022/07/15 07:30:45;;;;;;;5.43;2.23;;;21.30;82.70;;;;;;5010044;28;20456;-75
2022/07/15 07:33:11;;;;;;;3.57;2.13;;;21.20;82.50;;;;;;5010250;28;20178;-75
2022/07/15 07:35:37;;;;;;;10.17;2.20;;;21.30;81.50;;;;;;5010072;28;20420;-76
2022/07/15 07:38:03;;;;;;;5.73;2.47;;;21.30;83.90;;;;;;4991665;28;20524;-76
2022/07/15 07:40:29;;;;;;;6.83;2.20;;;21.30;84.30;;;;;;5009557;28;20445;-76
2022/07/15 07:42:56;;;;;;;3.83;2.23;;;21.30;84.50;;;;;;5009522;28;20189;-76
2022/07/15 07:45:22;;;;;;;3.20;2.30;;;21.40;85.90;;;;;;4991966;28;20425;-75
2022/07/15 07:47:48;;;;;;;5.23;1.90;;;21.30;87.80;;;;;;4991520;28;20445;-76
2022/07/15 07:50:14;;;;;;;11.37;1.80;;;21.30;87.10;;;;;;5009203;28;20599;-76
2022/07/15 07:52:39;;;;;;;11.90;2.10;;;21.40;89.80;;;;;;4991430;28;20190;-76
2022/07/15 07:55:06;;;;;;;5.00;2.10;;;21.40;90.50;;;;;;5008952;28;20189;-76
2022/07/15 07:57:32;;;;;;;4.40;2.03;;;21.50;90.40;;;;;;5008678;28;20198;-76
2022/07/15 07:59:58;;;;;;;5.43;2.17;;;21.60;91.30;;;;;;4991184;28;20431;-76
2022/07/15 08:02:24;;;;;;;3.90;2.33;;;21.70;90.40;;;;;;4991006;28;21074;-76
2022/07/15 08:04:50;;;;;;;2.77;2.27;;;21.80;90.40;;;;;;5008806;28;20431;-76
2022/07/15 08:07:15;;;;;;;6.27;2.17;;;21.90;88.90;;;;;;5008575;28;20205;-76
2022/07/15 08:09:41;;;;;;;4.53;2.13;;;22.10;89.40;;;;;;4990866;28;20214;-76
2022/07/15 08:12:07;;;;;;;6.50;2.40;;;22.20;89.60;;;;;;4991016;28;20192;-76
2022/07/15 08:14:33;;;;;;;7.70;2.53;;;22.30;85.60;;;;;;5008863;28;20235;-76
2022/07/15 08:16:59;;;;;;;2.73;2.00;;;22.40;90.10;;;;;;4990769;28;20467;-76
2022/07/15 08:19:24;;;;;;;3.30;2.23;;;22.60;87.60;;;;;;5008668;28;20463;-76
2022/07/15 08:21:50;;;;;;;4.57;2.10;;;22.70;88.50;;;;;;5008805;28;20683;-76
2022/07/15 08:24:17;;;;;;;11.07;2.57;;;22.80;86.60;;;;;;5008688;28;20186;-76
2022/07/15 08:26:43;;;;;;;4.47;2.23;;;22.90;87.00;;;;;;5008569;28;20435;-76
2022/07/15 08:29:08;;;;;;;5.60;2.60;;;22.90;84.30;;;;;;4991232;28;20539;-76
2022/07/15 08:31:36;;;;;;;3.50;2.23;;;23.10;85.70;;;;;;4990453;28;20556;-76
2022/07/15 08:34:02;;;;;;;5.33;2.23;;;23.20;82.80;;;;;;4990623;28;20959;-76
2022/07/15 08:36:28;;;;;;;7.40;2.17;;;23.30;81.20;;;;;;5007972;28;20454;-76
2022/07/15 08:38:54;;;;;;;8.10;2.17;;;23.40;82.10;;;;;;5008081;28;20438;-76
2022/07/15 08:41:20;;;;;;;9.80;2.07;;;23.40;80.00;;;;;;5007991;28;20195;-76
2022/07/15 08:43:45;;;;;;;6.53;2.50;;;23.40;77.40;;;;;;4990761;28;20186;-76
2022/07/15 08:46:14;;;;;;;4.87;1.90;;;23.60;79.40;;;;;;5008068;28;20217;-76
2022/07/15 08:48:41;;;;;;;6.57;2.27;;;23.70;76.50;;;;;;4989930;28;20278;-75
2022/07/15 08:51:07;;;;;;;3.63;2.40;;;23.80;79.80;;;;;;5007757;28;20474;-76
2022/07/15 08:53:34;;;;;;;5.67;1.60;;;24.00;77.50;;;;;;4990961;28;20419;-76
2022/07/15 08:56:00;;;;;;;4.20;1.87;;;24.40;76.00;;;;;;5008442;28;20464;-75
2022/07/15 08:58:26;;;;;;;2.37;1.80;;;24.70;74.30;;;;;;4990714;28;20441;-75
2022/07/15 09:00:52;;;;;;;6.07;2.20;;;24.80;75.10;;;;;;5008428;28;20477;-76
2022/07/15 09:03:18;;;;;;;3.73;2.30;;;24.90;73.00;;;;;;4990431;28;20431;-76
2022/07/15 09:05:43;;;;;;;4.17;1.97;;;24.90;74.20;;;;;;5008223;28;20424;-76
2022/07/15 09:08:13;;;;;;;4.20;1.80;;;25.00;72.70;;;;;;5008342;28;20188;-76
2022/07/15 09:10:45;;;;;;;4.63;2.20;;;25.20;70.30;;;;;;5008389;28;20671;-76
2022/07/15 09:13:32;;;;;;;4.80;2.40;;;25.50;70.60;;;;;;5008184;28;20498;-76
2022/07/15 09:16:04;;;;;;;3.83;2.43;;;25.70;66.60;;;;;;4990682;28;20940;-76
2022/07/15 09:18:35;;;;;;;3.80;2.10;;;25.90;67.80;;;;;;5008135;28;20471;-76
2022/07/15 09:21:02;;;;;;;2.47;2.20;;;26.20;65.60;;;;;;5007925;28;20446;-76
2022/07/15 09:23:29;;;;;;;4.70;2.00;;;26.20;63.50;;;;;;4989907;28;20455;-76
2022/07/15 09:25:58;;;;;;;3.83;2.03;;;26.30;64.00;;;;;;5007823;28;20505;-76
2022/07/15 09:28:40;;;;;;;6.60;2.00;;;26.50;64.20;;;;;;5007983;28;20412;-76
2022/07/15 09:33:58;;;;;;;4.93;2.60;;;26.50;60.00;;;;;;5007951;28;20940;-76
2022/07/15 09:36:27;;;;;;;5.67;1.67;;;26.30;61.50;;;;;;5007839;28;20435;-76
2022/07/15 09:38:58;;;;;;;5.43;2.27;;;26.60;62.80;;;;;;5007938;28;21338;-76
2022/07/15 09:41:39;;;;;;;5.70;2.30;;;26.90;61.50;;;;;;5008093;28;20431;-76
2022/07/15 09:44:22;;;;;;;2.90;1.33;;;27.00;61.10;;;;;;4990437;28;20868;-76
2022/07/15 09:47:00;;;;;;;2.50;1.67;;;27.10;60.30;;;;;;5007836;28;20442;-76
2022/07/15 09:49:25;;;;;;;3.47;1.90;;;27.50;59.40;;;;;;5007865;28;20460;-76
2022/07/15 09:51:55;;;;;;;5.73;2.50;;;27.60;58.60;;;;;;4989902;28;20510;-76
2022/07/15 09:54:28;;;;;;;4.87;2.23;;;27.60;57.70;;;;;;4973932;28;20195;-76
2022/07/15 09:56:54;;;;;;;6.90;2.20;;;27.20;57.80;;;;;;4990276;28;20441;-75
2022/07/15 09:59:20;;;;;;;7.10;2.43;;;27.40;59.40;;;;;;5007353;28;20420;-76
2022/07/15 10:01:47;;;;;;;3.90;2.13;;;27.80;58.40;;;;;;5009627;28;20857;-76
2022/07/15 10:04:15;;;;;;;3.03;2.00;;;28.00;57.70;;;;;;4993093;28;20450;-76
2022/07/15 10:06:42;;;;;;;8.63;2.30;;;28.20;57.00;;;;;;4992859;28;20451;-75
2022/07/15 10:09:09;;;;;;;4.03;2.40;;;28.20;56.50;;;;;;5010417;28;20428;-75
2022/07/15 10:11:44;;;;;;;2.90;2.07;;;28.10;55.90;;;;;;5010644;28;20434;-76
2022/07/15 10:14:31;;;;;;;2.67;2.07;;;28.00;55.40;;;;;;4992636;28;20439;-75
2022/07/15 10:17:18;;;;;;;2.37;2.17;;;27.90;55.10;;;;;;5010637;28;20442;-76
2022/07/15 10:20:20;;;;;;;6.80;2.37;;;27.70;55.90;;;;;;5010537;28;20459;-76
2022/07/15 10:23:13;;;;;;;6.40;2.13;;;27.50;54.80;;;;;;5010418;28;20427;-75
2022/07/15 10:25:55;;;;;;;3.63;2.03;;;27.60;54.80;;;;;;5011220;28;21281;-75
2022/07/15 10:28:23;;;;;;;3.23;2.03;;;27.50;55.00;;;;;;5013043;28;21042;-76
2022/07/15 10:31:17;;;;;;;4.00;2.10;;;27.70;55.70;;;;;;4992874;28;20557;-76
2022/07/15 10:33:42;;;;;;;5.43;2.43;;;27.50;55.60;;;;;;5010285;28;20917;-76
2022/07/15 10:36:08;;;;;;;4.27;2.70;;;27.00;55.50;;;;;;5010244;28;20521;-76
2022/07/15 10:38:41;;;;;;;4.00;2.40;;;26.50;57.00;;;;;;4992201;28;20189;-76
2022/07/15 10:41:09;;;;;;;8.43;2.33;;;26.50;58.00;;;;;;4992448;28;20482;-77
2022/07/15 10:43:49;;;;;;;3.40;2.00;;;26.70;57.30;;;;;;5010226;28;20437;-76
2022/07/15 10:46:18;;;;;;;6.77;2.33;;;26.90;56.70;;;;;;5010097;28;20432;-76
2022/07/15 10:49:13;;;;;;;2.80;2.47;;;27.20;57.60;;;;;;4992169;28;20490;-76
2022/07/15 10:51:39;;;;;;;5.17;2.10;;;27.30;56.10;;;;;;5010013;28;21039;-76
2022/07/15 10:54:09;;;;;;;6.63;2.50;;;27.30;55.20;;;;;;5010028;28;20404;-76
2022/07/15 10:56:42;;;;;;;6.30;2.03;;;27.40;56.80;;;;;;5009965;28;21297;-76
2022/07/15 10:59:15;;;;;;;3.00;2.13;;;27.50;56.60;;;;;;5010348;28;20412;-76
2022/07/15 11:01:46;;;;;;;7.00;2.70;;;27.70;55.60;;;;;;5010431;28;20419;-76
2022/07/15 11:04:21;;;;;;;3.67;2.37;;;27.70;54.80;;;;;;5010552;28;20428;-76
2022/07/15 11:07:03;;;;;;;2.90;2.23;;;27.80;54.70;;;;;;5010321;28;20539;-76
2022/07/15 11:09:51;;;;;;;3.30;2.33;;;27.80;54.60;;;;;;5010196;28;20478;-76
2022/07/15 11:12:49;;;;;;;4.00;2.27;;;27.90;55.30;;;;;;4994561;28;20438;-76
2022/07/15 11:15:20;;;;;;;8.20;2.97;;;28.00;54.70;;;;;;5000928;28;20482;-76
2022/07/15 11:17:49;;;;;;;7.17;2.77;;;27.90;52.10;;;;;;5009725;28;21319;-76
2022/07/15 11:20:33;;;;;;;2.57;2.10;;;27.90;54.40;;;;;;5009686;28;20430;-76
2022/07/15 11:23:00;;;;;;;4.47;2.50;;;28.00;54.10;;;;;;5009666;28;20431;-76
2022/07/15 11:25:30;;;;;;;2.37;2.00;;;28.10;53.80;;;;;;5009849;28;20424;-76
2022/07/15 11:28:11;;;;;;;6.80;2.50;;;28.10;53.60;;;;;;5009833;28;20981;-75
2022/07/15 11:30:36;;;;;;;7.80;2.50;;;28.30;53.80;;;;;;5009704;28;20494;-76
2022/07/15 11:33:04;;;;;;;3.70;2.40;;;28.30;54.80;;;;;;4991788;28;20941;-75
2022/07/15 11:35:30;;;;;;;3.17;2.40;;;28.20;53.70;;;;;;5009168;28;20204;-76
2022/07/15 11:38:03;;;;;;;3.63;1.93;;;28.40;53.80;;;;;;4991097;28;20451;-76
2022/07/15 11:46:04;;;;;;;12.57;2.57;;;28.40;53.40;;;;;;5009199;28;20494;-76
2022/07/15 11:48:35;;;;;;;6.10;2.53;;;28.60;52.50;;;;;;5009096;28;20947;-76
2022/07/15 11:51:01;;;;;;;6.50;2.20;;;28.50;52.30;;;;;;4990943;28;20818;-76
2022/07/15 11:53:27;;;;;;;4.13;2.50;;;28.70;52.30;;;;;;5008847;28;20420;-76
2022/07/15 11:55:58;;;;;;;3.10;2.30;;;28.70;53.80;;;;;;4991216;28;20797;-76
2022/07/15 11:58:32;;;;;;;2.50;2.03;;;28.70;54.10;;;;;;5009020;28;20213;-76
2022/07/15 12:01:00;;;;;;;3.10;2.33;;;28.60;53.70;;;;;;5009179;28;20421;-75
2022/07/15 12:03:53;;;;;;;4.63;2.63;;;28.50;53.30;;;;;;5009247;28;20501;-76
2022/07/15 12:06:32;;;;;;;7.70;2.37;;;28.50;52.50;;;;;;5004842;28;20448;-75
2022/07/15 12:09:02;;;;;;;10.77;2.40;;;28.60;52.00;;;;;;4991561;28;20435;-75
2022/07/15 12:11:31;;;;;;;7.53;2.50;;;28.60;52.00;;;;;;5009359;28;20596;-75
2022/07/15 12:13:58;;;;;;;3.03;1.93;;;28.20;50.50;;;;;;5009253;28;20427;-74
2022/07/15 12:16:25;;;;;;;4.77;2.37;;;28.20;51.80;;;;;;4991259;28;20451;-74
2022/07/15 12:18:57;;;;;;;5.43;2.63;;;28.40;51.50;;;;;;5009204;28;20416;-74
2022/07/15 12:21:24;;;;;;;8.60;2.90;;;28.70;52.80;;;;;;5009236;28;20440;-74
2022/07/15 12:24:00;;;;;;;6.57;2.23;;;28.70;52.10;;;;;;5008509;28;20413;-75
2022/07/15 12:26:26;;;;;;;8.30;2.50;;;28.80;53.20;;;;;;5008912;28;20435;-75
2022/07/15 12:28:56;;;;;;;2.60;2.13;;;29.00;52.70;;;;;;5010314;28;20944;-76
2022/07/15 12:31:30;;;;;;;5.07;2.70;;;28.90;51.40;;;;;;4991733;28;20685;-75
2022/07/15 12:33:56;;;;;;;5.20;2.67;;;28.90;51.00;;;;;;5011610;28;20424;-75
2022/07/15 12:36:29;;;;;;;5.40;2.67;;;28.80;50.40;;;;;;4990952;28;20435;-75
2022/07/15 12:39:16;;;;;;;5.50;2.60;;;28.70;52.20;;;;;;4991092;28;20185;-75
2022/07/15 12:41:44;;;;;;;6.23;3.03;;;28.70;52.00;;;;;;5008213;28;20414;-75
2022/07/15 12:44:10;;;;;;;4.10;2.33;;;28.70;51.80;;;;;;5007941;28;20723;-75
2022/07/15 12:46:58;;;;;;;3.70;2.10;;;28.70;51.90;;;;;;5007908;28;20522;-74
2022/07/15 12:49:44;;;;;;;5.33;2.20;;;28.60;51.70;;;;;;5007923;28;20517;-75
2022/07/15 12:52:20;;;;;;;3.70;2.40;;;28.70;52.90;;;;;;5009403;28;20406;-75
2022/07/15 12:54:46;;;;;;;4.07;3.10;;;28.80;52.20;;;;;;5008170;28;20909;-75
2022/07/15 12:57:27;;;;;;;2.93;2.10;;;28.80;51.90;;;;;;4994379;28;20777;-75
2022/07/15 13:00:05;;;;;;;5.33;2.53;;;28.90;51.10;;;;;;4992066;28;20441;-75
2022/07/15 13:02:32;;;;;;;5.23;2.23;;;28.70;50.90;;;;;;5007777;28;20942;-75